createdAt,value
2022-09-03T00:00:09.091Z,20.24
2022-09-03T00:02:41.022Z,20.27
2022-09-03T00:05:13.605Z,20.25
2022-09-03T00:07:48.104Z,20.24
2022-09-03T00:10:23.163Z,20.19
2022-09-03T00:12:52.381Z,20.19
2022-09-03T00:15:22.073Z,20.14
2022-09-03T00:17:53.241Z,20.16
2022-09-03T00:20:24.136Z,20.14
2022-09-03T00:22:54.793Z,20.13
2022-09-03T00:25:26.645Z,20.12
2022-09-03T00:27:56.989Z,20.10
2022-09-03T00:30:27.591Z,20.08
2022-09-03T00:32:58.801Z,20.08
2022-09-03T00:35:29.017Z,20.06
2022-09-03T00:37:57.267Z,20.05
2022-09-03T00:40:38.504Z,20.04
2022-09-03T00:43:14.338Z,20.01
2022-09-03T00:45:45.461Z,19.99
2022-09-03T00:48:20.564Z,19.95
2022-09-03T00:51:06.890Z,19.95
2022-09-03T00:53:38.039Z,19.92
2022-09-03T00:56:13.980Z,19.92
2022-09-03T00:58:51.292Z,19.88
2022-09-03T01:01:24.323Z,19.87
2022-09-03T01:03:58.704Z,19.84
2022-09-03T01:06:31.233Z,19.79
2022-09-03T01:09:10.309Z,19.82
2022-09-03T01:11:49.179Z,19.80
2022-09-03T01:14:24.562Z,19.80
2022-09-03T01:16:56.299Z,19.76
2022-09-03T01:19:41.831Z,19.75
2022-09-03T01:22:25.342Z,19.73
2022-09-03T01:25:14.047Z,19.72
2022-09-03T01:27:48.102Z,19.70
2022-09-03T01:30:19.349Z,19.69
2022-09-03T01:32:53.043Z,19.71
2022-09-03T01:35:28.243Z,19.72
2022-09-03T01:38:14.268Z,19.68
2022-09-03T01:40:44.131Z,19.52
2022-09-03T01:43:24.115Z,19.62
2022-09-03T01:45:59.668Z,19.63
2022-09-03T01:48:35.344Z,19.64
2022-09-03T01:51:11.046Z,19.63
2022-09-03T01:53:58.035Z,19.60
2022-09-03T01:56:34.378Z,19.57
2022-09-03T01:59:03.881Z,19.40
2022-09-03T02:01:35.114Z,19.44
2022-09-03T02:04:03.263Z,19.48
2022-09-03T02:06:32.937Z,19.50
2022-09-03T02:09:00.549Z,19.48
2022-09-03T02:11:28.356Z,19.47
2022-09-03T02:13:57.696Z,19.48
2022-09-03T02:16:28.748Z,19.45
2022-09-03T02:19:01.174Z,19.47
2022-09-03T02:21:34.569Z,19.45
2022-09-03T02:24:02.417Z,19.43
2022-09-03T02:26:30.065Z,19.42
2022-09-03T02:28:58.364Z,19.42
2022-09-03T02:31:26.547Z,19.40
2022-09-03T02:33:54.364Z,19.38
2022-09-03T02:36:28.582Z,19.38
2022-09-03T02:38:56.287Z,19.35
2022-09-03T02:41:24.114Z,19.32
2022-09-03T02:43:54.774Z,19.30
2022-09-03T02:46:27.087Z,19.26
2022-09-03T02:48:55.114Z,19.26
2022-09-03T02:51:24.153Z,19.26
2022-09-03T02:53:52.036Z,19.21
2022-09-03T02:56:19.886Z,19.19
2022-09-03T02:58:47.511Z,19.20
2022-09-03T03:01:23.882Z,19.17
2022-09-03T03:03:52.084Z,19.15
2022-09-03T03:06:21.813Z,19.10
2022-09-03T03:08:51.593Z,19.12
2022-09-03T03:11:20.127Z,19.10
2022-09-03T03:13:48.017Z,19.07
2022-09-03T03:16:17.045Z,19.05
2022-09-03T03:18:46.201Z,19.02
2022-09-03T03:21:15.302Z,19.02
2022-09-03T03:23:43.145Z,18.98
2022-09-03T03:26:14.145Z,18.98
2022-09-03T03:28:42.306Z,18.95
2022-09-03T03:31:12.093Z,18.93
2022-09-03T03:33:40.450Z,18.92
2022-09-03T03:36:10.334Z,18.89
2022-09-03T03:38:38.675Z,18.87
2022-09-03T03:41:10.857Z,18.87
2022-09-03T03:43:40.080Z,18.82
2022-09-03T03:46:08.140Z,18.81
2022-09-03T03:48:36.291Z,18.81
2022-09-03T03:51:06.731Z,18.79
2022-09-03T03:53:35.285Z,18.77
2022-09-03T03:56:04.633Z,18.70
2022-09-03T03:58:33.949Z,18.75
2022-09-03T04:01:07.469Z,18.74
2022-09-03T04:03:35.236Z,18.70
2022-09-03T04:06:04.677Z,18.69
2022-09-03T04:08:35.628Z,18.70
2022-09-03T04:11:04.188Z,18.68
2022-09-03T04:13:32.614Z,18.67
2022-09-03T04:16:04.668Z,18.65
2022-09-03T04:18:35.223Z,18.63
2022-09-03T04:21:04.648Z,18.61
2022-09-03T04:23:32.923Z,18.61
2022-09-03T04:26:00.895Z,18.59
2022-09-03T04:28:29.311Z,18.57
2022-09-03T04:31:02.006Z,18.58
2022-09-03T04:33:29.780Z,18.54
2022-09-03T04:36:07.796Z,18.55
2022-09-03T04:38:35.919Z,18.50
2022-09-03T04:41:04.094Z,18.48
2022-09-03T04:43:31.893Z,18.48
2022-09-03T04:46:00.424Z,18.48
2022-09-03T04:48:28.452Z,18.45
2022-09-03T04:50:56.511Z,18.45
2022-09-03T04:53:25.619Z,18.44
2022-09-03T04:55:53.261Z,18.41
2022-09-03T04:58:20.976Z,18.39
2022-09-03T05:00:49.337Z,18.38
2022-09-03T05:03:17.761Z,18.37
2022-09-03T05:05:53.327Z,18.38
2022-09-03T05:08:21.727Z,18.31
2022-09-03T05:10:50.820Z,18.32
2022-09-03T05:13:23.156Z,18.30
2022-09-03T05:15:50.837Z,18.29
2022-09-03T05:18:18.815Z,18.28
2022-09-03T05:20:46.819Z,18.27
2022-09-03T05:23:14.460Z,18.27
2022-09-03T05:25:42.066Z,18.27
2022-09-03T05:28:11.121Z,18.27
2022-09-03T05:30:38.829Z,18.27
2022-09-03T05:33:06.518Z,18.23
2022-09-03T05:35:35.605Z,18.28
2022-09-03T05:38:03.631Z,18.27
2022-09-03T05:40:31.577Z,18.27
2022-09-03T05:42:59.824Z,18.29
2022-09-03T05:45:29.817Z,18.31
2022-09-03T05:48:01.092Z,18.29
2022-09-03T05:50:28.713Z,18.29
2022-09-03T05:52:56.399Z,18.29
2022-09-03T05:55:24.034Z,18.31
2022-09-03T05:57:52.813Z,18.32
2022-09-03T06:00:20.492Z,18.31
2022-09-03T06:02:52.976Z,18.36
2022-09-03T06:05:20.979Z,18.32
2022-09-03T06:07:49.594Z,18.32
2022-09-03T06:10:21.256Z,18.32
2022-09-03T06:12:52.665Z,18.33
2022-09-03T06:15:20.426Z,18.26
2022-09-03T06:17:48.110Z,18.36
2022-09-03T06:20:17.328Z,18.37
2022-09-03T06:22:52.131Z,18.39
2022-09-03T06:25:20.330Z,18.38
2022-09-03T06:27:49.436Z,18.41
2022-09-03T06:30:17.925Z,18.43
2022-09-03T06:32:45.845Z,18.45
2022-09-03T06:35:13.757Z,18.47
2022-09-03T06:37:43.031Z,18.49
2022-09-03T06:40:14.155Z,18.50
2022-09-03T06:42:43.819Z,18.51
2022-09-03T06:45:13.713Z,18.52
2022-09-03T06:47:41.333Z,18.54
2022-09-03T06:50:10.157Z,18.58
2022-09-03T06:52:37.804Z,18.58
2022-09-03T06:55:08.100Z,18.60
2022-09-03T06:57:35.872Z,18.61
2022-09-03T07:00:04.545Z,18.65
2022-09-03T07:02:32.337Z,18.69
2022-09-03T07:05:00.586Z,18.71
2022-09-03T07:07:28.281Z,18.77
2022-09-03T07:09:55.928Z,18.79
2022-09-03T07:12:24.909Z,18.84
2022-09-03T07:14:52.559Z,18.86
2022-09-03T07:17:21.368Z,18.89
2022-09-03T07:19:49.229Z,18.91
2022-09-03T07:22:16.862Z,18.95
2022-09-03T07:24:46.878Z,18.98
2022-09-03T07:27:15.256Z,19.04
2022-09-03T07:29:44.693Z,19.08
2022-09-03T07:32:12.476Z,19.10
2022-09-03T07:34:40.194Z,19.17
2022-09-03T07:37:08.118Z,19.25
2022-09-03T07:39:35.989Z,19.29
2022-09-03T07:42:03.811Z,19.31
2022-09-03T07:44:31.486Z,19.40
2022-09-03T07:47:00.826Z,19.47
2022-09-03T07:49:28.554Z,19.51
2022-09-03T07:51:56.296Z,19.57
2022-09-03T07:54:26.118Z,19.63
2022-09-03T07:56:55.136Z,19.68
2022-09-03T07:59:24.433Z,19.71
2022-09-03T08:01:52.122Z,19.82
2022-09-03T08:04:22.022Z,19.90
2022-09-03T08:06:49.726Z,19.99
2022-09-03T08:09:17.514Z,20.08
2022-09-03T08:11:45.219Z,20.16
2022-09-03T08:14:14.827Z,20.24
2022-09-03T08:16:44.477Z,20.36
2022-09-03T08:19:13.389Z,20.44
2022-09-03T08:21:42.894Z,20.51
2022-09-03T08:24:11.500Z,20.60
2022-09-03T08:26:44.104Z,20.64
2022-09-03T08:29:14.152Z,20.74
2022-09-03T08:31:42.901Z,20.82
2022-09-03T08:34:11.845Z,20.89
2022-09-03T08:36:41.548Z,20.96
2022-09-03T08:39:12.165Z,21.04
2022-09-03T08:41:57.495Z,21.10
2022-09-03T08:44:28.090Z,21.16
2022-09-03T08:46:59.525Z,21.25
2022-09-03T08:49:30.159Z,21.34
2022-09-03T08:51:58.988Z,21.43
2022-09-03T08:54:31.862Z,21.50
2022-09-03T08:57:02.441Z,21.54
2022-09-03T08:59:33.049Z,21.64
2022-09-03T09:02:09.928Z,21.73
2022-09-03T09:04:51.914Z,21.78
2022-09-03T09:07:23.686Z,21.83
2022-09-03T09:09:58.030Z,21.95
2022-09-03T09:12:41.295Z,21.99
2022-09-03T09:15:15.509Z,22.08
2022-09-03T09:17:52.523Z,22.19
2022-09-03T09:20:26.344Z,22.31
2022-09-03T09:22:56.795Z,22.43
2022-09-03T09:25:27.018Z,22.97
2022-09-03T09:27:58.213Z,22.80
2022-09-03T09:30:26.051Z,22.81
2022-09-03T09:32:54.010Z,22.88
2022-09-03T09:35:21.882Z,22.94
2022-09-03T09:37:51.308Z,22.99
2022-09-03T09:40:34.054Z,23.11
2022-09-03T09:43:10.844Z,23.18
2022-09-03T09:47:11.870Z,23.24
2022-09-03T09:49:45.152Z,23.33
2022-09-03T09:52:14.489Z,23.40
2022-09-03T09:54:43.639Z,23.44
2022-09-03T09:57:18.196Z,23.52
2022-09-03T09:59:46.991Z,23.60
2022-09-03T10:02:22.346Z,23.63
2022-09-03T10:04:50.625Z,23.73
2022-09-03T10:07:24.165Z,23.82
2022-09-03T10:10:02.677Z,23.86
2022-09-03T10:12:34.964Z,23.89
2022-09-03T10:15:12.917Z,23.94
2022-09-03T10:17:50.381Z,24.03
2022-09-03T10:20:31.169Z,24.02
2022-09-03T10:23:02.506Z,24.05
2022-09-03T10:25:39.190Z,24.01
2022-09-03T10:28:07.623Z,23.89
2022-09-03T10:30:56.321Z,24.07
2022-09-03T10:33:27.560Z,24.20
2022-09-03T10:36:02.948Z,24.29
2022-09-03T10:38:34.194Z,24.78
2022-09-03T10:41:10.722Z,24.98
2022-09-03T10:43:47.724Z,24.71
2022-09-03T10:46:23.872Z,24.74
2022-09-03T10:49:19.755Z,24.77
2022-09-03T10:51:52.754Z,24.78
2022-09-03T10:54:35.681Z,24.82
2022-09-03T10:57:10.163Z,24.84
2022-09-03T11:00:09.939Z,24.87
2022-09-03T11:02:52.861Z,24.86
2022-09-03T11:05:23.830Z,24.94
2022-09-03T11:07:55.425Z,25.01
2022-09-03T11:10:31.001Z,25.08
2022-09-03T11:13:04.880Z,25.17
2022-09-03T11:15:35.925Z,25.23
2022-09-03T11:18:07.790Z,25.29
2022-09-03T11:20:36.904Z,25.25
2022-09-03T11:23:05.933Z,25.28
2022-09-03T11:25:36.751Z,25.32
2022-09-03T11:28:11.671Z,25.36
2022-09-03T11:30:51.297Z,25.42
2022-09-03T11:33:21.066Z,25.47
2022-09-03T11:35:57.653Z,25.50
2022-09-03T11:38:28.972Z,25.55
2022-09-03T11:41:01.445Z,25.66
2022-09-03T11:43:30.590Z,25.66
2022-09-03T11:46:06.938Z,25.75
2022-09-03T11:48:38.393Z,25.78
2022-09-03T11:51:19.084Z,25.78
2022-09-03T11:53:55.649Z,25.68
2022-09-03T11:56:23.587Z,25.61
2022-09-03T11:59:02.750Z,25.54
2022-09-03T12:01:31.313Z,25.54
2022-09-03T12:04:03.517Z,25.60
2022-09-03T12:06:49.746Z,25.70
2022-09-03T12:09:32.201Z,25.89
2022-09-03T12:12:09.208Z,26.03
2022-09-03T12:14:41.941Z,26.13
2022-09-03T12:17:15.788Z,26.25
2022-09-03T12:19:48.855Z,26.36
2022-09-03T12:22:19.166Z,26.41
2022-09-03T12:24:48.273Z,26.45
2022-09-03T12:27:24.669Z,26.49
2022-09-03T12:29:57.987Z,26.59
2022-09-03T12:32:26.378Z,26.63
2022-09-03T12:34:54.708Z,26.59
2022-09-03T12:40:22.076Z,26.71
2022-09-03T12:42:50.458Z,26.81
2022-09-03T12:45:20.777Z,26.92
2022-09-03T12:47:48.758Z,26.98
2022-09-03T12:50:20.083Z,27.02
2022-09-03T12:52:50.574Z,27.06
2022-09-03T12:55:28.191Z,27.12
2022-09-03T12:58:02.207Z,27.05
2022-09-03T13:00:33.031Z,27.17
2022-09-03T13:03:03.485Z,27.22
2022-09-03T13:05:34.501Z,27.63
2022-09-03T13:08:05.389Z,27.36
2022-09-03T13:10:36.855Z,27.31
2022-09-03T13:13:05.459Z,27.19
2022-09-03T13:15:33.190Z,27.29
2022-09-03T13:18:09.572Z,27.32
2022-09-03T13:20:45.217Z,27.34
2022-09-03T13:23:21.974Z,27.21
2022-09-03T13:25:57.014Z,27.27
2022-09-03T13:28:40.026Z,27.29
2022-09-03T13:31:19.934Z,27.35
2022-09-03T13:33:50.964Z,27.43
2022-09-03T13:36:21.214Z,27.47
2022-09-03T13:38:55.614Z,27.53
2022-09-03T13:41:34.676Z,27.61
2022-09-03T13:44:08.421Z,27.50
2022-09-03T13:46:42.568Z,27.59
2022-09-03T13:49:36.242Z,27.61
2022-09-03T13:52:07.747Z,27.57
2022-09-03T13:54:49.235Z,27.54
2022-09-03T13:57:20.960Z,27.37
2022-09-03T13:59:49.918Z,27.28
2022-09-03T14:02:19.815Z,27.21
2022-09-03T14:04:56.551Z,27.30
2022-09-03T14:07:28.525Z,27.31
2022-09-03T14:10:06.094Z,27.36
2022-09-03T14:12:44.217Z,27.40
2022-09-03T14:15:18.890Z,27.41
2022-09-03T14:17:50.012Z,27.38
2022-09-03T14:20:22.825Z,27.32
2022-09-03T14:22:53.989Z,27.18
2022-09-03T14:25:23.898Z,27.03
2022-09-03T14:27:51.952Z,26.88
2022-09-03T14:30:26.734Z,26.79
2022-09-03T14:32:58.466Z,26.76
2022-09-03T14:35:49.849Z,26.74
2022-09-03T14:38:39.419Z,26.78
2022-09-03T14:41:31.584Z,26.74
2022-09-03T14:44:24.052Z,26.73
2022-09-03T14:47:02.388Z,26.75
2022-09-03T14:49:59.455Z,26.84
2022-09-03T14:52:49.997Z,26.89
2022-09-03T14:55:30.639Z,26.97
2022-09-03T14:58:15.370Z,27.09
2022-09-03T15:00:51.124Z,27.14
2022-09-03T15:03:40.949Z,27.26
2022-09-03T15:06:14.791Z,27.21
2022-09-03T15:08:55.861Z,27.24
2022-09-03T15:11:25.765Z,27.25
2022-09-03T15:14:03.209Z,27.31
2022-09-03T15:16:41.152Z,27.29
2022-09-03T15:19:14.929Z,27.31
2022-09-03T15:21:55.397Z,27.36
2022-09-03T15:24:28.799Z,27.31
2022-09-03T15:27:10.132Z,27.21
2022-09-03T15:29:51.424Z,27.07
2022-09-03T15:32:28.562Z,26.96
2022-09-03T15:35:08.725Z,26.95
2022-09-03T15:37:43.637Z,26.89
2022-09-03T15:40:25.184Z,26.81
2022-09-03T15:42:58.033Z,26.68
2022-09-03T15:45:29.825Z,26.47
2022-09-03T15:47:57.802Z,26.39
2022-09-03T15:50:33.987Z,26.41
2022-09-03T15:53:05.019Z,26.42
2022-09-03T15:55:37.050Z,26.34
2022-09-03T15:58:11.379Z,26.25
2022-09-03T16:00:52.345Z,26.17
2022-09-03T16:03:24.496Z,26.09
2022-09-03T16:05:58.096Z,26.06
2022-09-03T16:08:29.509Z,26.03
2022-09-03T16:11:02.888Z,26.05
2022-09-03T16:13:42.253Z,26.07
2022-09-03T16:16:12.906Z,26.03
2022-09-03T16:18:45.621Z,26.01
2022-09-03T16:21:25.803Z,26.01
2022-09-03T16:23:54.231Z,25.84
2022-09-03T16:26:28.107Z,25.92
2022-09-03T16:28:58.689Z,25.91
2022-09-03T16:31:37.842Z,25.88
2022-09-03T16:34:08.675Z,25.87
2022-09-03T16:36:41.540Z,25.85
2022-09-03T16:39:18.004Z,25.86
2022-09-03T16:41:50.447Z,25.83
2022-09-03T16:44:24.385Z,25.82
2022-09-03T16:47:01.485Z,25.81
2022-09-03T16:49:40.305Z,25.79
2022-09-03T16:52:14.887Z,25.75
2022-09-03T16:54:56.018Z,25.68
2022-09-03T16:57:34.190Z,25.67
2022-09-03T17:00:07.978Z,25.65
2022-09-03T17:02:58.495Z,25.61
2022-09-03T17:05:40.131Z,25.58
2022-09-03T17:08:17.000Z,25.50
2022-09-03T17:10:49.190Z,25.49
2022-09-03T17:13:44.252Z,25.42
2022-09-03T17:16:24.493Z,25.41
2022-09-03T17:18:59.626Z,25.39
2022-09-03T17:21:38.693Z,25.86
2022-09-03T17:24:37.388Z,25.54
2022-09-03T17:27:24.924Z,25.44
2022-09-03T17:30:07.588Z,25.33
2022-09-03T17:32:48.700Z,25.32
2022-09-03T17:35:19.751Z,25.29
2022-09-03T17:37:58.167Z,25.25
2022-09-03T17:40:39.112Z,25.21
2022-09-03T17:43:13.153Z,25.16
2022-09-03T17:45:49.316Z,25.14
2022-09-03T17:48:23.788Z,24.93
2022-09-03T17:50:57.054Z,25.00
2022-09-03T17:53:26.999Z,25.00
2022-09-03T17:55:58.200Z,24.98
2022-09-03T17:58:31.271Z,24.94
2022-09-03T18:01:04.465Z,24.91
2022-09-03T18:03:37.362Z,24.84
2022-09-03T18:06:10.583Z,24.86
2022-09-03T18:08:46.145Z,24.80
2022-09-03T18:11:16.171Z,24.79
2022-09-03T18:13:46.864Z,24.61
2022-09-03T18:16:17.647Z,24.68
2022-09-03T18:18:47.871Z,24.68
2022-09-03T18:21:39.495Z,24.67
2022-09-03T18:24:36.202Z,24.64
2022-09-03T18:27:27.993Z,24.60
2022-09-03T18:30:16.967Z,24.52
2022-09-03T18:33:02.098Z,24.52
2022-09-03T18:35:50.086Z,24.50
2022-09-03T18:38:44.470Z,24.46
2022-09-03T18:41:40.077Z,24.42
2022-09-03T18:44:27.401Z,24.22
2022-09-03T18:50:27.577Z,24.28
2022-09-03T18:53:15.858Z,24.27
2022-09-03T18:56:13.485Z,24.27
2022-09-03T18:59:09.734Z,24.23
2022-09-03T19:01:57.325Z,24.19
2022-09-03T19:04:48.835Z,24.19
2022-09-03T19:07:41.468Z,24.17
2022-09-03T19:10:29.540Z,24.13
2022-09-03T19:13:31.034Z,24.11
2022-09-03T19:16:18.738Z,24.06
2022-09-03T19:19:23.434Z,24.00
2022-09-03T19:22:13.444Z,23.98
2022-09-03T19:24:58.470Z,23.96
2022-09-03T19:27:55.548Z,23.95
2022-09-03T19:30:50.294Z,23.91
2022-09-03T19:33:42.779Z,23.89
2022-09-03T19:36:33.498Z,23.87
2022-09-03T19:39:29.717Z,23.84
2022-09-03T19:42:20.233Z,23.79
2022-09-03T19:45:14.491Z,23.78
2022-09-03T19:48:07.119Z,23.77
2022-09-03T19:50:56.327Z,23.75
2022-09-03T19:53:42.283Z,23.73
2022-09-03T19:56:28.185Z,23.54
2022-09-03T19:59:14.624Z,23.62
2022-09-03T20:02:00.781Z,23.64
2022-09-03T20:04:50.119Z,23.63
2022-09-03T20:07:36.324Z,23.61
2022-09-03T20:10:23.558Z,23.58
2022-09-03T20:12:57.385Z,23.57
2022-09-03T20:15:29.365Z,23.53
2022-09-03T20:18:02.620Z,23.53
2022-09-03T20:20:36.455Z,23.50
2022-09-03T20:23:09.602Z,23.46
2022-09-03T20:25:46.745Z,23.47
2022-09-03T20:28:25.005Z,23.46
2022-09-03T20:30:57.652Z,23.42
2022-09-03T20:33:35.698Z,23.42
2022-09-03T20:36:12.334Z,23.41
2022-09-03T20:38:52.055Z,23.40
2022-09-03T20:41:24.786Z,23.35
2022-09-03T20:44:15.189Z,23.35
2022-09-03T20:46:54.100Z,23.29
2022-09-03T20:49:31.218Z,23.27
2022-09-03T20:52:07.449Z,23.28
2022-09-03T20:54:39.020Z,23.27
2022-09-03T20:57:26.089Z,23.26
2022-09-03T21:00:04.854Z,23.22
2022-09-03T21:02:53.421Z,23.21
2022-09-03T21:05:26.142Z,23.16
2022-09-03T21:08:04.722Z,23.17
2022-09-03T21:10:35.592Z,23.14
2022-09-03T21:13:09.177Z,23.12
2022-09-03T21:15:43.486Z,23.11
2022-09-03T21:18:17.199Z,23.06
2022-09-03T21:20:47.725Z,23.05
2022-09-03T21:23:22.405Z,23.06
2022-09-03T21:25:55.772Z,23.03
2022-09-03T21:28:25.635Z,23.01
2022-09-03T21:30:57.613Z,22.99
2022-09-03T21:33:29.356Z,22.98
2022-09-03T21:36:05.256Z,22.94
2022-09-03T21:38:37.001Z,22.90
2022-09-03T21:41:13.799Z,22.89
2022-09-03T21:43:48.192Z,22.87
2022-09-03T21:46:17.224Z,22.83
2022-09-03T21:48:48.687Z,22.83
2022-09-03T21:51:21.821Z,22.80
2022-09-03T21:53:55.990Z,22.79
2022-09-03T21:56:40.068Z,22.76
2022-09-03T21:59:15.985Z,22.73
2022-09-03T22:01:55.519Z,22.71
2022-09-03T22:04:23.278Z,22.68
2022-09-03T22:06:56.434Z,22.67
2022-09-03T22:09:29.809Z,22.65
2022-09-03T22:12:02.306Z,22.60
2022-09-03T22:14:34.887Z,22.57
2022-09-03T22:17:08.785Z,22.53
2022-09-03T22:19:37.556Z,22.50
2022-09-03T22:22:09.927Z,22.52
2022-09-03T22:24:44.080Z,22.48
2022-09-03T22:27:19.669Z,22.46
2022-09-03T22:29:51.038Z,22.41
2022-09-03T22:32:33.686Z,22.39
2022-09-03T22:35:14.701Z,22.37
2022-09-03T22:37:53.069Z,22.34
2022-09-03T22:40:25.964Z,22.29
2022-09-03T22:43:06.138Z,22.25
2022-09-03T22:45:54.355Z,22.22
2022-09-03T22:48:32.058Z,22.19
2022-09-03T22:51:00.907Z,22.14
2022-09-03T22:53:40.159Z,22.15
2022-09-03T22:56:11.437Z,22.12
2022-09-03T22:58:44.193Z,22.10
2022-09-03T23:01:17.889Z,22.08
2022-09-03T23:03:50.722Z,22.06
2022-09-03T23:06:25.304Z,22.02
2022-09-03T23:08:58.095Z,21.98
2022-09-03T23:11:29.407Z,21.97
2022-09-03T23:14:01.592Z,21.92
2022-09-03T23:16:34.124Z,21.91
2022-09-03T23:21:51.769Z,21.85
2022-09-03T23:24:20.355Z,21.62
2022-09-03T23:26:52.588Z,21.70
2022-09-03T23:29:26.069Z,21.70
2022-09-03T23:31:55.135Z,21.66
2022-09-03T23:34:22.827Z,21.63
2022-09-03T23:37:29.278Z,21.65
2022-09-03T23:40:02.705Z,21.59
2022-09-03T23:42:44.550Z,21.53
2022-09-03T23:45:17.599Z,21.47
2022-09-03T23:47:54.208Z,21.46
2022-09-03T23:50:33.293Z,21.44
2022-09-03T23:53:09.599Z,21.41
2022-09-03T23:55:38.685Z,21.21
2022-09-03T23:58:12.259Z,21.32
